createdAt,value
2022-12-27T00:00:14.228Z,6.62
2022-12-27T00:02:42.581Z,6.53
2022-12-27T00:05:11.716Z,6.63
2022-12-27T00:07:40.365Z,6.47
2022-12-27T00:10:11.437Z,6.58
2022-12-27T00:12:40.348Z,6.60
2022-12-27T00:15:10.267Z,6.57
2022-12-27T00:17:38.452Z,6.46
2022-12-27T00:20:11.578Z,6.35
2022-12-27T00:22:41.789Z,6.11
2022-12-27T00:25:10.792Z,6.13
2022-12-27T00:27:39.716Z,5.97
2022-12-27T00:30:09.082Z,6.00
2022-12-27T00:32:37.621Z,5.84
2022-12-27T00:35:07.369Z,5.91
2022-12-27T00:37:36.603Z,5.86
2022-12-27T00:40:06.505Z,5.82
2022-12-27T00:42:38.355Z,5.84
2022-12-27T00:45:07.768Z,5.66
2022-12-27T00:47:36.938Z,5.69
2022-12-27T00:50:06.605Z,5.69
2022-12-27T00:52:36.315Z,5.80
2022-12-27T00:55:05.903Z,5.51
2022-12-27T00:57:34.475Z,5.71
2022-12-27T01:00:10.134Z,6.12
2022-12-27T01:02:39.194Z,6.23
2022-12-27T01:05:10.656Z,6.33
2022-12-27T01:07:39.099Z,6.43
2022-12-27T01:10:10.185Z,6.49
2022-12-27T01:12:39.175Z,6.54
2022-12-27T01:15:11.045Z,6.45
2022-12-27T01:17:39.998Z,6.38
2022-12-27T01:20:09.477Z,6.13
2022-12-27T01:22:38.205Z,5.28
2022-12-27T01:25:07.647Z,6.31
2022-12-27T01:27:36.153Z,6.27
2022-12-27T01:30:10.435Z,6.24
2022-12-27T01:32:39.549Z,6.31
2022-12-27T01:35:09.013Z,6.30
2022-12-27T01:37:37.724Z,6.24
2022-12-27T01:40:07.247Z,6.26
2022-12-27T01:42:54.229Z,5.96
2022-12-27T01:45:40.889Z,6.22
2022-12-27T01:48:22.637Z,6.03
2022-12-27T01:50:56.675Z,6.06
2022-12-27T01:53:39.913Z,6.27
2022-12-27T01:56:30.534Z,6.30
2022-12-27T01:59:06.216Z,6.34
2022-12-27T02:01:44.924Z,6.32
2022-12-27T02:04:19.520Z,6.06
2022-12-27T02:06:48.695Z,6.40
2022-12-27T02:09:22.838Z,6.46
2022-12-27T02:11:57.339Z,6.52
2022-12-27T02:14:34.919Z,6.47
2022-12-27T02:17:12.707Z,6.49
2022-12-27T02:19:42.711Z,6.63
2022-12-27T02:23:11.384Z,6.59
2022-12-27T02:25:55.625Z,6.37
2022-12-27T02:28:49.987Z,6.55
2022-12-27T02:31:59.191Z,6.40
2022-12-27T02:34:38.556Z,6.46
2022-12-27T02:37:13.189Z,6.54
2022-12-27T02:39:48.726Z,6.54
2022-12-27T02:42:38.477Z,6.26
2022-12-27T02:45:38.981Z,6.66
2022-12-27T02:48:31.998Z,6.69
2022-12-27T02:51:36.788Z,6.70
2022-12-27T02:54:30.507Z,6.73
2022-12-27T02:57:33.777Z,6.43
2022-12-27T03:04:43.278Z,6.73
2022-12-27T03:07:39.769Z,6.74
2022-12-27T03:10:54.584Z,6.73
2022-12-27T03:14:24.608Z,6.67
2022-12-27T03:17:08.799Z,6.71
2022-12-27T03:20:06.194Z,6.53
2022-12-27T03:22:58.239Z,6.53
2022-12-27T03:25:28.932Z,6.54
2022-12-27T03:28:34.596Z,6.81
2022-12-27T03:31:42.580Z,6.58
2022-12-27T03:34:32.582Z,6.74
2022-12-27T03:37:26.171Z,6.52
2022-12-27T03:40:23.087Z,6.84
2022-12-27T03:43:14.465Z,6.64
2022-12-27T03:46:34.258Z,6.88
2022-12-27T03:49:39.608Z,6.87
2022-12-27T03:52:26.394Z,6.89
2022-12-27T03:54:56.149Z,6.90
2022-12-27T03:57:31.833Z,6.91
2022-12-27T04:00:00.803Z,6.70
2022-12-27T04:02:30.035Z,6.66
2022-12-27T04:04:59.336Z,6.90
2022-12-27T04:07:28.812Z,6.70
2022-12-27T04:10:16.066Z,6.64
2022-12-27T04:13:03.667Z,6.91
2022-12-27T04:15:52.181Z,6.96
2022-12-27T04:18:39.568Z,6.93
2022-12-27T04:21:26.857Z,6.94
2022-12-27T04:24:14.988Z,6.62
2022-12-27T04:27:02.197Z,6.87
2022-12-27T04:29:49.161Z,6.52
2022-12-27T04:32:36.555Z,6.72
2022-12-27T04:35:06.221Z,6.74
2022-12-27T04:37:34.565Z,6.71
2022-12-27T04:40:21.615Z,6.63
2022-12-27T04:43:10.292Z,6.66
2022-12-27T04:45:57.089Z,6.59
2022-12-27T04:48:46.720Z,6.36
2022-12-27T04:51:34.470Z,6.47
2022-12-27T04:54:21.753Z,6.26
2022-12-27T04:56:50.972Z,6.49
2022-12-27T04:59:38.707Z,6.20
2022-12-27T05:02:07.908Z,6.43
2022-12-27T05:04:38.958Z,6.39
2022-12-27T05:07:49.281Z,6.28
2022-12-27T05:10:36.591Z,6.15
2022-12-27T05:13:23.875Z,6.39
2022-12-27T05:15:52.421Z,6.28
2022-12-27T05:18:20.745Z,6.40
2022-12-27T05:20:49.576Z,6.40
2022-12-27T05:23:37.374Z,6.32
2022-12-27T05:26:06.418Z,6.39
2022-12-27T05:28:34.950Z,5.87
2022-12-27T05:31:03.916Z,6.16
2022-12-27T05:33:32.870Z,6.30
2022-12-27T05:36:01.523Z,6.44
2022-12-27T05:38:30.189Z,6.11
2022-12-27T05:41:00.841Z,6.42
2022-12-27T05:43:30.555Z,6.40
2022-12-27T05:46:13.000Z,6.37
2022-12-27T05:48:42.363Z,6.32
2022-12-27T05:51:19.709Z,6.33
2022-12-27T05:53:50.060Z,6.17
2022-12-27T05:56:21.256Z,6.28
2022-12-27T05:58:53.852Z,6.20
2022-12-27T06:01:23.292Z,6.42
2022-12-27T06:03:52.180Z,6.33
2022-12-27T06:06:21.063Z,6.19
2022-12-27T06:08:49.845Z,5.97
2022-12-27T06:11:19.739Z,5.83
2022-12-27T06:13:54.425Z,6.03
2022-12-27T06:16:23.387Z,6.09
2022-12-27T06:18:51.568Z,6.13
2022-12-27T06:21:21.894Z,6.07
2022-12-27T06:23:50.893Z,5.99
2022-12-27T06:26:24.820Z,5.98
2022-12-27T06:28:55.154Z,5.65
2022-12-27T06:31:24.503Z,5.40
2022-12-27T06:33:53.376Z,5.27
2022-12-27T06:36:26.552Z,5.25
2022-12-27T06:38:55.133Z,5.14
2022-12-27T06:41:24.348Z,4.97
2022-12-27T06:43:58.790Z,4.76
2022-12-27T06:46:27.546Z,4.51
2022-12-27T06:48:56.020Z,4.47
2022-12-27T06:51:24.298Z,4.41
2022-12-27T06:53:52.579Z,4.46
2022-12-27T06:56:23.843Z,4.47
2022-12-27T06:58:52.803Z,4.52
2022-12-27T07:01:28.037Z,4.44
2022-12-27T07:03:59.907Z,4.13
2022-12-27T07:06:31.042Z,4.01
2022-12-27T07:09:01.790Z,3.80
2022-12-27T07:11:32.705Z,3.76
2022-12-27T07:14:01.117Z,3.83
2022-12-27T07:16:31.212Z,3.91
2022-12-27T07:19:00.461Z,3.93
2022-12-27T07:21:30.419Z,3.76
2022-12-27T07:23:59.031Z,3.84
2022-12-27T07:26:30.387Z,3.55
2022-12-27T07:29:01.648Z,3.74
2022-12-27T07:31:32.968Z,3.48
2022-12-27T07:34:04.379Z,3.58
2022-12-27T07:36:38.393Z,3.67
2022-12-27T07:39:08.000Z,3.81
2022-12-27T07:41:37.952Z,3.95
2022-12-27T07:44:07.548Z,3.54
2022-12-27T07:46:37.590Z,3.71
2022-12-27T07:49:06.118Z,3.70
2022-12-27T07:51:34.532Z,3.52
2022-12-27T07:54:05.912Z,3.57
2022-12-27T07:56:34.647Z,3.61
2022-12-27T07:59:03.360Z,3.57
2022-12-27T08:01:55.190Z,3.44
2022-12-27T08:04:24.325Z,3.48
2022-12-27T08:06:52.783Z,3.15
2022-12-27T08:09:30.532Z,3.44
2022-12-27T08:11:58.751Z,3.46
2022-12-27T08:14:26.998Z,3.13
2022-12-27T08:17:02.675Z,3.45
2022-12-27T08:19:31.033Z,3.39
2022-12-27T08:21:59.354Z,3.35
2022-12-27T08:24:28.250Z,3.26
2022-12-27T08:26:57.164Z,3.34
2022-12-27T08:29:27.172Z,3.28
2022-12-27T08:31:55.797Z,3.48
2022-12-27T08:34:24.269Z,3.37
2022-12-27T08:36:55.854Z,3.77
2022-12-27T08:39:24.997Z,3.72
2022-12-27T08:41:54.416Z,4.07
2022-12-27T08:44:23.898Z,4.15
2022-12-27T08:46:52.435Z,3.99
2022-12-27T08:49:21.023Z,4.05
2022-12-27T08:51:49.890Z,4.26
2022-12-27T08:54:18.353Z,4.47
2022-12-27T08:56:47.042Z,4.68
2022-12-27T08:59:15.428Z,4.72
2022-12-27T09:01:45.323Z,4.64
2022-12-27T09:04:14.291Z,4.55
2022-12-27T09:06:42.768Z,4.34
2022-12-27T09:09:11.298Z,4.35
2022-12-27T09:11:40.526Z,4.33
2022-12-27T09:14:12.781Z,4.64
2022-12-27T09:16:41.963Z,4.69
2022-12-27T09:19:11.427Z,4.51
2022-12-27T09:21:42.287Z,4.82
2022-12-27T09:24:15.383Z,4.54
2022-12-27T09:26:44.442Z,4.96
2022-12-27T09:29:13.410Z,5.05
2022-12-27T09:31:41.953Z,4.74
2022-12-27T09:34:12.061Z,4.66
2022-12-27T09:36:41.525Z,4.71
2022-12-27T09:39:13.127Z,4.55
2022-12-27T09:45:20.718Z,5.02
2022-12-27T09:48:33.420Z,4.87
2022-12-27T09:51:21.757Z,4.58
2022-12-27T09:54:11.617Z,4.91
2022-12-27T09:57:17.743Z,4.77
2022-12-27T09:59:44.530Z,4.08
2022-12-27T10:02:39.531Z,4.60
2022-12-27T10:05:22.372Z,4.33
2022-12-27T10:08:10.235Z,4.53
2022-12-27T10:10:58.202Z,4.28
2022-12-27T10:13:42.062Z,4.51
2022-12-27T10:16:34.651Z,4.52
2022-12-27T10:19:23.019Z,4.52
2022-12-27T10:22:33.907Z,4.27
2022-12-27T10:25:12.117Z,4.51
2022-12-27T10:27:42.047Z,4.50
2022-12-27T10:30:20.680Z,4.32
2022-12-27T10:32:50.038Z,4.57
2022-12-27T10:35:21.632Z,4.54
2022-12-27T10:37:50.980Z,4.64
2022-12-27T10:40:29.810Z,4.43
2022-12-27T10:43:09.032Z,4.45
2022-12-27T10:45:43.163Z,4.68
2022-12-27T10:48:28.912Z,4.50
2022-12-27T10:51:09.762Z,4.69
2022-12-27T10:54:10.449Z,4.39
2022-12-27T10:56:42.275Z,4.31
2022-12-27T10:59:19.088Z,4.47
2022-12-27T11:02:19.106Z,4.32
2022-12-27T11:05:01.733Z,4.39
2022-12-27T11:07:35.612Z,4.36
2022-12-27T11:10:21.777Z,4.26
2022-12-27T11:13:02.171Z,4.24
2022-12-27T11:15:42.484Z,3.99
2022-12-27T11:18:20.291Z,4.09
2022-12-27T11:20:58.873Z,4.14
2022-12-27T11:23:42.743Z,4.27
2022-12-27T11:26:24.942Z,4.41
2022-12-27T11:29:03.520Z,4.51
2022-12-27T11:31:44.875Z,4.28
2022-12-27T11:34:26.805Z,4.24
2022-12-27T11:37:03.244Z,4.38
2022-12-27T11:39:45.804Z,4.52
2022-12-27T11:42:47.767Z,4.64
2022-12-27T11:45:26.638Z,4.73
2022-12-27T11:48:31.689Z,4.86
2022-12-27T11:51:24.598Z,4.52
2022-12-27T11:54:30.324Z,4.34
2022-12-27T11:57:38.742Z,4.80
2022-12-27T12:00:25.337Z,4.59
2022-12-27T12:03:54.115Z,4.72
2022-12-27T12:06:52.481Z,4.69
2022-12-27T12:09:30.262Z,4.20
2022-12-27T12:12:46.387Z,4.55
2022-12-27T12:15:32.133Z,4.51
2022-12-27T12:18:51.101Z,4.50
2022-12-27T12:21:37.860Z,4.22
2022-12-27T12:24:50.962Z,4.53
2022-12-27T12:27:31.656Z,4.64
2022-12-27T12:30:37.756Z,4.67
2022-12-27T12:33:16.160Z,4.41
2022-12-27T12:36:22.658Z,4.47
2022-12-27T12:39:39.073Z,4.49
2022-12-27T12:42:41.458Z,4.92
2022-12-27T12:45:31.508Z,4.63
2022-12-27T12:48:51.556Z,4.84
2022-12-27T12:52:01.052Z,4.78
2022-12-27T12:54:54.802Z,4.75
2022-12-27T12:57:35.206Z,4.76
2022-12-27T13:00:49.116Z,4.62
2022-12-27T13:03:48.555Z,4.50
2022-12-27T13:06:56.595Z,4.73
2022-12-27T13:10:21.769Z,4.71
2022-12-27T13:13:10.527Z,4.74
2022-12-27T13:16:05.096Z,4.57
2022-12-27T13:19:14.699Z,4.59
2022-12-27T13:22:16.385Z,4.54
2022-12-27T13:25:07.587Z,4.56
2022-12-27T13:28:02.194Z,4.45
2022-12-27T13:30:55.250Z,4.36
2022-12-27T13:34:12.377Z,4.37
2022-12-27T13:37:14.597Z,4.45
2022-12-27T13:40:26.128Z,4.16
2022-12-27T13:43:43.534Z,4.50
2022-12-27T13:46:47.191Z,4.32
2022-12-27T13:49:34.537Z,4.14
2022-12-27T13:52:57.581Z,4.02
2022-12-27T13:55:52.719Z,3.92
2022-12-27T13:59:27.810Z,3.79
2022-12-27T14:02:19.684Z,3.67
2022-12-27T14:05:06.966Z,2.99
2022-12-27T14:07:56.554Z,3.61
2022-12-27T14:10:50.152Z,3.58
2022-12-27T14:13:43.928Z,3.52
2022-12-27T14:16:57.549Z,3.74
2022-12-27T14:20:24.312Z,3.70
2022-12-27T14:22:58.425Z,3.71
2022-12-27T14:26:03.814Z,3.71
2022-12-27T14:29:12.387Z,3.65
2022-12-27T14:32:00.423Z,3.61
2022-12-27T14:35:27.142Z,3.59
2022-12-27T14:38:45.358Z,3.33
2022-12-27T14:41:59.907Z,3.35
2022-12-27T14:44:55.695Z,3.65
2022-12-27T14:48:25.621Z,3.71
2022-12-27T14:51:50.455Z,3.72
2022-12-27T14:54:19.184Z,3.74
2022-12-27T15:45:50.998Z,3.69
2022-12-27T15:48:58.794Z,3.52
2022-12-27T15:51:52.773Z,3.61
2022-12-27T15:54:50.382Z,3.71
2022-12-27T15:57:37.492Z,3.49
2022-12-27T16:00:18.393Z,3.68
2022-12-27T16:02:51.916Z,3.61
2022-12-27T16:05:22.923Z,3.71
2022-12-27T16:07:59.969Z,3.75
2022-12-27T16:10:34.499Z,3.70
2022-12-27T16:13:11.215Z,3.70
2022-12-27T16:15:50.368Z,3.70
2022-12-27T16:18:24.730Z,3.67
2022-12-27T16:21:18.637Z,3.64
2022-12-27T16:23:46.844Z,3.36
2022-12-27T16:26:27.516Z,3.61
2022-12-27T16:29:17.515Z,3.58
2022-12-27T16:31:50.623Z,3.49
2022-12-27T16:34:31.985Z,3.44
2022-12-27T16:37:01.297Z,3.11
2022-12-27T16:40:01.754Z,3.28
2022-12-27T16:43:11.144Z,3.13
2022-12-27T16:45:59.514Z,3.00
2022-12-27T16:48:49.153Z,2.95
2022-12-27T16:51:51.751Z,2.89
2022-12-27T16:54:57.419Z,2.90
2022-12-27T16:57:25.595Z,2.92
2022-12-27T17:00:13.724Z,3.00
2022-12-27T17:02:46.667Z,2.71
2022-12-27T17:05:41.910Z,2.87
2022-12-27T17:08:24.742Z,3.08
2022-12-27T17:10:52.725Z,3.12
2022-12-27T17:13:55.410Z,3.10
2022-12-27T17:16:29.738Z,3.07
2022-12-27T17:19:04.735Z,3.04
2022-12-27T17:21:41.337Z,3.05
2022-12-27T17:24:21.280Z,3.08
2022-12-27T17:27:30.137Z,3.06
2022-12-27T17:30:05.622Z,3.12
2022-12-27T17:33:04.317Z,2.69
2022-12-27T17:36:22.091Z,2.73
2022-12-27T17:38:55.447Z,3.01
2022-12-27T17:41:57.759Z,2.56
2022-12-27T17:44:47.485Z,2.76
2022-12-27T17:47:37.423Z,2.37
2022-12-27T17:50:14.081Z,2.56
2022-12-27T17:53:01.118Z,2.27
2022-12-27T17:56:07.656Z,2.39
2022-12-27T17:58:36.299Z,2.55
2022-12-27T18:01:04.808Z,2.62
2022-12-27T18:03:45.108Z,2.58
2022-12-27T18:06:22.571Z,2.62
2022-12-27T18:08:57.711Z,1.63
2022-12-27T18:11:29.292Z,2.60
2022-12-27T18:14:00.878Z,2.59
2022-12-27T18:16:39.335Z,2.61
2022-12-27T18:19:07.955Z,2.65
2022-12-27T18:21:39.100Z,1.84
2022-12-27T18:24:40.116Z,2.30
2022-12-27T18:27:20.375Z,2.54
2022-12-27T18:29:49.989Z,2.51
2022-12-27T18:32:19.820Z,2.21
2022-12-27T18:35:00.841Z,2.35
2022-12-27T18:37:31.261Z,2.43
2022-12-27T18:40:05.004Z,2.46
2022-12-27T18:42:40.139Z,2.37
2022-12-27T18:45:34.927Z,2.20
2022-12-27T18:48:12.192Z,2.06
2022-12-27T18:50:53.340Z,2.01
2022-12-27T18:53:32.550Z,2.04
2022-12-27T18:56:06.131Z,2.08
2022-12-27T18:58:35.847Z,2.07
2022-12-27T19:01:20.261Z,2.12
2022-12-27T19:04:20.326Z,2.42
2022-12-27T19:07:15.054Z,2.43
2022-12-27T19:09:53.634Z,2.44
2022-12-27T19:12:25.489Z,2.42
2022-12-27T19:14:55.186Z,2.34
2022-12-27T19:17:32.502Z,2.16
2022-12-27T19:20:04.792Z,2.45
2022-12-27T19:22:47.887Z,2.27
2022-12-27T19:25:24.483Z,2.50
2022-12-27T19:28:11.180Z,2.50
2022-12-27T19:30:51.563Z,2.47
2022-12-27T19:33:32.916Z,2.33
2022-12-27T19:36:07.490Z,2.51
2022-12-27T19:38:36.722Z,2.60
2022-12-27T19:41:06.597Z,2.67
2022-12-27T19:43:46.929Z,2.73
2022-12-27T19:46:16.178Z,2.72
2022-12-27T19:49:01.066Z,2.69
2022-12-27T19:51:37.815Z,2.50
2022-12-27T19:54:20.937Z,2.77
2022-12-27T19:56:50.543Z,2.73
2022-12-27T19:59:25.256Z,2.49
2022-12-27T20:01:54.649Z,2.77
2022-12-27T20:04:24.133Z,2.73
2022-12-27T20:06:54.772Z,2.73
2022-12-27T20:09:23.626Z,2.70
2022-12-27T20:11:52.410Z,2.71
2022-12-27T20:14:20.984Z,2.52
2022-12-27T20:16:49.564Z,2.50
2022-12-27T20:19:18.432Z,2.64
2022-12-27T20:21:47.467Z,2.51
2022-12-27T20:24:16.155Z,2.68
2022-12-27T20:26:44.959Z,2.40
2022-12-27T20:29:15.764Z,2.73
2022-12-27T20:31:48.966Z,2.72
2022-12-27T20:34:21.042Z,2.74
2022-12-27T20:36:49.992Z,2.68
2022-12-27T20:39:18.625Z,2.72
2022-12-27T20:41:47.445Z,2.74
2022-12-27T20:44:19.222Z,2.60
2022-12-27T20:46:48.248Z,2.67
2022-12-27T20:49:18.257Z,2.76
2022-12-27T20:51:46.743Z,2.79
2022-12-27T20:54:17.161Z,2.57
2022-12-27T20:56:45.552Z,2.51
2022-12-27T20:59:17.393Z,2.50
2022-12-27T21:01:49.287Z,2.78
2022-12-27T21:04:21.298Z,2.76
2022-12-27T21:06:51.232Z,2.62
2022-12-27T21:09:20.136Z,2.60
2022-12-27T21:11:55.434Z,2.42
2022-12-27T21:14:24.960Z,2.71
2022-12-27T21:16:54.850Z,2.43
2022-12-27T21:19:23.696Z,2.70
2022-12-27T21:21:53.192Z,2.48
2022-12-27T21:24:22.709Z,2.39
2022-12-27T21:26:56.229Z,2.63
2022-12-27T21:29:26.259Z,2.34
2022-12-27T21:31:54.701Z,2.62
2022-12-27T21:34:23.348Z,1.94
2022-12-27T21:36:55.154Z,2.72
2022-12-27T21:39:23.571Z,2.73
2022-12-27T21:41:51.832Z,2.71
2022-12-27T21:44:25.456Z,2.76
2022-12-27T21:46:53.806Z,2.69
2022-12-27T21:49:23.151Z,2.72
2022-12-27T21:51:52.148Z,2.45
2022-12-27T21:54:22.596Z,2.73
2022-12-27T21:56:51.069Z,2.72
2022-12-27T21:59:19.605Z,2.49
2022-12-27T22:01:50.818Z,2.45
2022-12-27T22:04:22.271Z,2.72
2022-12-27T22:06:51.049Z,2.75
2022-12-27T22:09:20.097Z,2.71
2022-12-27T22:11:49.104Z,2.39
2022-12-27T22:14:21.838Z,2.64
2022-12-27T22:16:53.595Z,2.60
2022-12-27T22:19:26.323Z,2.69
2022-12-27T22:21:58.282Z,2.72
2022-12-27T22:24:26.861Z,2.71
2022-12-27T22:26:55.325Z,2.54
2022-12-27T22:29:25.078Z,2.73
2022-12-27T22:31:53.428Z,2.63
2022-12-27T22:34:22.304Z,2.71
2022-12-27T22:36:52.359Z,2.70
2022-12-27T22:39:20.871Z,2.58
2022-12-27T22:41:49.121Z,2.65
2022-12-27T22:44:17.459Z,2.55
2022-12-27T22:47:15.652Z,2.60
2022-12-27T22:49:35.179Z,2.60
2022-12-27T22:52:03.759Z,2.61
2022-12-27T22:55:05.032Z,2.57
2022-12-27T22:57:20.122Z,2.54
2022-12-27T22:59:48.251Z,2.50
2022-12-27T23:02:16.745Z,2.50
2022-12-27T23:04:47.423Z,2.47
2022-12-27T23:07:20.197Z,2.38
2022-12-27T23:09:48.951Z,2.33
2022-12-27T23:12:17.017Z,2.23
2022-12-27T23:14:45.116Z,1.96
2022-12-27T23:17:13.989Z,2.18
2022-12-27T23:19:42.986Z,2.11
2022-12-27T23:22:11.032Z,1.96
2022-12-27T23:24:39.196Z,1.75
2022-12-27T23:27:07.182Z,1.92
2022-12-27T23:29:35.298Z,1.91
2022-12-27T23:32:03.559Z,1.58
2022-12-27T23:34:31.948Z,1.60
2022-12-27T23:37:01.471Z,1.59
2022-12-27T23:39:30.056Z,1.81
2022-12-27T23:41:58.141Z,1.82
2022-12-27T23:44:33.320Z,1.81
2022-12-27T23:47:07.616Z,1.80
2022-12-27T23:49:35.818Z,1.82
2022-12-27T23:52:04.577Z,1.80
2022-12-27T23:54:32.662Z,1.78
2022-12-27T23:57:20.363Z,1.76
2022-12-27T23:59:49.636Z,1.57
